createdAt,value
2018-04-08T00:00:22.783Z,49.56
2018-04-08T00:01:22.946Z,60.55
2018-04-08T00:02:23.112Z,65.19
2018-04-08T00:03:23.276Z,47.85
2018-04-08T00:04:23.441Z,62.26
2018-04-08T00:05:23.608Z,64.45
2018-04-08T00:06:23.772Z,60.06
2018-04-08T00:07:23.936Z,54.20
2018-04-08T00:08:24.102Z,68.12
2018-04-08T00:09:24.263Z,56.15
2018-04-08T00:10:24.429Z,53.71
2018-04-08T00:11:24.594Z,68.12
2018-04-08T00:12:24.757Z,61.04
2018-04-08T00:13:24.920Z,53.71
2018-04-08T00:17:07.648Z,55.66
2018-04-08T00:18:07.813Z,67.63
2018-04-08T00:19:07.977Z,49.56
2018-04-08T00:20:08.157Z,67.14
2018-04-08T00:21:08.288Z,61.52
2018-04-08T00:22:08.443Z,44.68
2018-04-08T00:23:08.606Z,66.65
2018-04-08T00:24:08.762Z,45.17
2018-04-08T00:25:08.929Z,50.54
2018-04-08T00:26:09.097Z,59.81
2018-04-08T00:27:09.260Z,63.72
2018-04-08T00:28:09.425Z,58.11
2018-04-08T00:29:09.588Z,62.01
2018-04-08T00:30:09.752Z,61.52
2018-04-08T00:33:52.469Z,61.28
2018-04-08T00:34:52.635Z,52.73
2018-04-08T00:35:52.811Z,52.49
2018-04-08T00:36:52.975Z,47.85
2018-04-08T00:37:53.133Z,55.18
2018-04-08T00:38:53.301Z,62.74
2018-04-08T00:39:53.469Z,54.69
2018-04-08T00:40:53.628Z,49.07
2018-04-08T00:41:53.805Z,62.26
2018-04-08T00:42:53.969Z,65.19
2018-04-08T00:43:54.129Z,68.85
2018-04-08T00:44:54.296Z,58.35
2018-04-08T00:45:54.449Z,48.34
2018-04-08T00:46:54.618Z,61.04
2018-04-08T00:54:15.310Z,65.19
2018-04-08T00:55:15.474Z,54.69
2018-04-08T00:56:15.636Z,64.45
2018-04-08T00:57:15.802Z,57.86
2018-04-08T00:58:15.968Z,61.52
2018-04-08T00:59:16.125Z,51.27
2018-04-08T01:00:16.290Z,61.77
2018-04-08T01:01:16.454Z,73.73
2018-04-08T01:02:16.617Z,62.26
2018-04-08T01:03:16.778Z,55.91
2018-04-08T01:04:16.954Z,46.14
2018-04-08T01:05:17.115Z,44.43
2018-04-08T01:06:17.290Z,50.78
2018-04-08T01:07:17.448Z,45.65
2018-04-08T01:10:59.866Z,54.20
2018-04-08T01:12:00.029Z,52.49
2018-04-08T01:13:00.226Z,55.91
2018-04-08T01:14:00.360Z,60.79
2018-04-08T01:15:00.527Z,59.57
2018-04-08T01:16:00.704Z,48.83
2018-04-08T01:17:00.866Z,47.61
2018-04-08T01:18:01.027Z,69.82
2018-04-08T01:19:01.196Z,46.88
2018-04-08T01:20:01.353Z,50.29
2018-04-08T01:21:01.512Z,53.47
2018-04-08T01:22:01.668Z,43.70
2018-04-08T01:23:01.898Z,44.43
2018-04-08T01:24:02.063Z,67.14
2018-04-08T01:27:44.474Z,53.71
2018-04-08T01:28:44.635Z,59.33
2018-04-08T01:29:44.811Z,64.45
2018-04-08T01:30:44.953Z,65.67
2018-04-08T01:31:45.124Z,56.40
2018-04-08T01:32:45.287Z,52.73
2018-04-08T01:33:45.445Z,61.28
2018-04-08T01:34:45.612Z,64.45
2018-04-08T01:35:45.778Z,82.52
2018-04-08T01:36:45.944Z,79.83
2018-04-08T01:37:46.110Z,59.33
2018-04-08T01:38:46.273Z,67.38
2018-04-08T01:39:46.435Z,61.52
2018-04-08T01:40:46.616Z,62.50
2018-04-08T01:44:29.060Z,70.31
2018-04-08T01:45:29.225Z,56.40
2018-04-08T01:46:29.393Z,68.36
2018-04-08T01:47:29.554Z,65.92
2018-04-08T01:48:29.715Z,51.03
2018-04-08T01:49:29.879Z,54.69
2018-04-08T01:50:30.037Z,54.93
2018-04-08T01:51:30.216Z,55.42
2018-04-08T01:52:30.381Z,65.19
2018-04-08T01:58:11.046Z,57.62
2018-04-08T01:59:11.218Z,62.50
2018-04-08T02:00:11.376Z,63.96
2018-04-08T02:01:11.533Z,71.29
2018-04-08T02:02:12.359Z,63.96
2018-04-08T02:03:11.897Z,69.09
2018-04-08T02:04:12.062Z,53.47
2018-04-08T02:05:12.228Z,55.18
2018-04-08T02:06:12.398Z,71.78
2018-04-08T02:09:54.804Z,65.67
2018-04-08T02:10:55.682Z,64.70
2018-04-08T02:11:55.097Z,64.70
2018-04-08T02:12:55.279Z,51.51
2018-04-08T02:13:55.439Z,48.58
2018-04-08T02:14:55.606Z,44.92
2018-04-08T02:15:55.762Z,45.90
2018-04-08T02:16:55.925Z,42.72
2018-04-08T02:17:56.100Z,49.07
2018-04-08T02:18:56.246Z,45.41
2018-04-08T02:19:56.405Z,45.90
2018-04-08T02:20:56.568Z,50.29
2018-04-08T02:21:56.726Z,63.96
2018-04-08T02:22:56.892Z,47.85
2018-04-08T02:26:39.323Z,46.39
2018-04-08T02:27:39.484Z,46.39
2018-04-08T02:28:39.652Z,50.29
2018-04-08T02:29:39.809Z,50.78
2018-04-08T02:30:39.982Z,48.10
2018-04-08T02:31:40.155Z,55.66
2018-04-08T02:32:40.340Z,45.17
2018-04-08T02:33:40.515Z,44.92
2018-04-08T02:34:40.681Z,60.55
2018-04-08T02:38:23.394Z,44.43
2018-04-08T02:39:23.556Z,55.91
2018-04-08T02:40:23.724Z,45.17
2018-04-08T02:41:23.885Z,62.01
2018-04-08T02:42:24.059Z,54.93
2018-04-08T02:43:24.221Z,45.41
2018-04-08T02:44:24.393Z,46.88
2018-04-08T02:45:24.552Z,47.61
2018-04-08T02:46:24.715Z,41.99
2018-04-08T02:47:24.865Z,62.50
2018-04-08T02:48:25.030Z,53.47
2018-04-08T02:49:25.189Z,47.12
2018-04-08T02:50:25.366Z,56.15
2018-04-08T02:51:25.518Z,54.69
2018-04-08T02:54:57.948Z,53.47
2018-04-08T02:55:58.112Z,69.58
2018-04-08T02:56:58.264Z,50.54
2018-04-08T02:57:58.448Z,54.69
2018-04-08T02:58:58.608Z,48.10
2018-04-08T02:59:58.776Z,59.08
2018-04-08T03:00:58.942Z,68.12
2018-04-08T03:01:59.101Z,68.36
2018-04-08T03:02:59.261Z,70.31
2018-04-08T03:03:59.427Z,62.01
2018-04-08T03:04:59.596Z,54.44
2018-04-08T03:05:59.755Z,48.58
2018-04-08T03:06:59.919Z,50.29
2018-04-08T03:08:00.084Z,49.80
2018-04-08T03:11:32.511Z,66.41
2018-04-08T03:12:32.673Z,56.88
2018-04-08T03:13:32.835Z,51.76
2018-04-08T03:14:33.005Z,66.41
2018-04-08T03:15:33.163Z,63.23
2018-04-08T03:16:33.328Z,46.39
2018-04-08T03:17:33.490Z,60.30
2018-04-08T03:18:33.652Z,48.58
2018-04-08T03:19:33.818Z,46.14
2018-04-08T03:20:33.983Z,48.58
2018-04-08T03:21:34.147Z,47.36
2018-04-08T03:22:34.309Z,49.80
2018-04-08T03:23:34.469Z,47.85
2018-04-08T03:24:34.639Z,50.05
2018-04-08T03:28:17.058Z,62.26
2018-04-08T03:29:17.219Z,62.74
2018-04-08T03:30:17.382Z,46.14
2018-04-08T03:31:17.543Z,50.05
2018-04-08T03:32:17.700Z,64.70
2018-04-08T03:33:17.883Z,58.35
2018-04-08T03:34:18.047Z,57.13
2018-04-08T03:35:18.210Z,59.81
2018-04-08T03:36:18.386Z,68.85
2018-04-08T03:37:18.539Z,47.12
2018-04-08T03:38:18.709Z,49.07
2018-04-08T03:39:18.877Z,47.85
2018-04-08T03:40:19.024Z,49.56
2018-04-08T03:41:19.196Z,49.32
2018-04-08T03:45:01.915Z,54.93
2018-04-08T03:46:02.099Z,48.83
2018-04-08T03:47:02.246Z,48.34
2018-04-08T03:48:02.408Z,51.27
2018-04-08T03:49:02.571Z,49.80
2018-04-08T03:50:02.733Z,55.42
2018-04-08T03:51:02.900Z,53.71
2018-04-08T03:52:03.062Z,47.61
2018-04-08T03:53:11.178Z,56.15
2018-04-08T03:54:03.344Z,47.12
2018-04-08T03:55:03.505Z,47.12
2018-04-08T03:56:03.669Z,48.83
2018-04-08T03:57:03.839Z,50.54
2018-04-08T03:58:03.990Z,54.44
2018-04-08T03:59:11.604Z,50.29
2018-04-08T04:00:04.253Z,51.51
2018-04-08T04:01:04.416Z,52.25
2018-04-08T04:02:04.598Z,47.36
2018-04-08T04:03:04.751Z,52.49
2018-04-08T04:04:04.917Z,53.47
2018-04-08T04:05:05.109Z,52.00
2018-04-08T04:06:05.257Z,50.78
2018-04-08T04:07:05.420Z,53.22
2018-04-08T04:08:05.584Z,57.13
2018-04-08T04:09:06.483Z,46.88
2018-04-08T04:10:05.927Z,52.73
2018-04-08T04:11:06.078Z,51.03
2018-04-08T04:12:06.243Z,44.92
2018-04-08T04:13:06.407Z,48.83
2018-04-08T04:22:07.209Z,50.05
2018-04-08T04:23:07.370Z,47.61
2018-04-08T04:24:07.545Z,66.89
2018-04-08T04:25:07.701Z,52.25
2018-04-08T04:26:07.867Z,57.86
2018-04-08T04:27:08.025Z,54.93
2018-04-08T04:28:08.190Z,51.03
2018-04-08T04:29:08.355Z,51.27
2018-04-08T04:30:08.513Z,51.76
2018-04-08T04:31:08.676Z,46.14
2018-04-08T04:32:08.848Z,78.13
2018-04-08T04:33:09.007Z,65.43
2018-04-08T04:34:09.179Z,55.91
2018-04-08T04:35:09.353Z,47.85
2018-04-08T04:38:51.783Z,50.05
2018-04-08T04:39:51.947Z,49.80
2018-04-08T04:40:52.111Z,48.10
2018-04-08T04:41:52.277Z,55.66
2018-04-08T04:42:52.439Z,59.57
2018-04-08T04:43:52.604Z,50.54
2018-04-08T04:44:52.773Z,55.18
2018-04-08T04:45:52.932Z,63.48
2018-04-08T04:46:53.095Z,62.74
2018-04-08T04:47:54.146Z,50.05
2018-04-08T04:48:53.437Z,50.54
2018-04-08T04:49:53.625Z,49.32
2018-04-08T04:50:53.797Z,52.73
2018-04-08T04:51:53.957Z,51.51
2018-04-08T04:55:36.691Z,56.15
2018-04-08T04:56:36.860Z,48.58
2018-04-08T04:57:37.030Z,56.15
2018-04-08T04:58:37.202Z,52.49
2018-04-08T04:59:37.362Z,52.25
2018-04-08T05:00:37.522Z,50.78
2018-04-08T05:01:37.690Z,55.91
2018-04-08T05:02:37.849Z,57.37
2018-04-08T05:03:38.030Z,50.05
2018-04-08T05:04:38.736Z,56.15
2018-04-08T05:05:38.273Z,49.07
2018-04-08T05:06:38.432Z,48.83
2018-04-08T05:07:38.617Z,50.54
2018-04-08T05:08:38.748Z,49.80
2018-04-08T05:13:19.489Z,70.80
2018-04-08T05:14:19.645Z,69.82
2018-04-08T05:15:19.817Z,73.97
2018-04-08T05:16:19.968Z,79.83
2018-04-08T05:17:20.145Z,72.27
2018-04-08T05:18:20.352Z,71.53
2018-04-08T05:19:20.529Z,68.60
2018-04-08T05:20:20.683Z,62.50
2018-04-08T05:21:20.854Z,63.23
2018-04-08T05:22:21.021Z,65.19
2018-04-08T05:23:21.178Z,64.70
2018-04-08T05:24:21.341Z,67.63
2018-04-08T05:25:21.516Z,64.21
2018-04-08T05:26:21.674Z,71.78
2018-04-08T05:30:04.377Z,62.99
2018-04-08T05:31:04.557Z,58.84
2018-04-08T05:32:04.721Z,64.70
2018-04-08T05:33:04.884Z,57.62
2018-04-08T05:34:05.043Z,56.15
2018-04-08T05:35:05.205Z,51.03
2018-04-08T05:36:05.389Z,63.72
2018-04-08T05:37:05.529Z,64.70
2018-04-08T05:38:05.685Z,50.29
2018-04-08T05:41:48.393Z,53.71
2018-04-08T05:42:48.559Z,64.21
2018-04-08T05:43:48.723Z,71.53
2018-04-08T05:44:48.885Z,68.85
2018-04-08T05:45:49.053Z,59.08
2018-04-08T05:46:49.213Z,70.56
2018-04-08T05:47:49.365Z,70.80
2018-04-08T05:48:49.534Z,65.92
2018-04-08T05:49:49.694Z,64.45
2018-04-08T05:50:49.854Z,64.70
2018-04-08T05:51:50.024Z,59.08
2018-04-08T05:52:50.179Z,62.99
2018-04-08T05:53:50.364Z,62.99
2018-04-08T05:54:50.503Z,65.19
2018-04-08T05:58:32.931Z,54.69
2018-04-08T05:59:33.092Z,62.26
2018-04-08T06:00:33.259Z,59.33
2018-04-08T06:01:33.418Z,76.66
2018-04-08T06:02:33.583Z,61.28
2018-04-08T06:03:33.751Z,57.13
2018-04-08T06:04:33.912Z,55.91
2018-04-08T06:05:34.084Z,59.57
2018-04-08T06:06:34.246Z,56.64
2018-04-08T06:07:34.401Z,57.13
2018-04-08T06:08:34.562Z,57.37
2018-04-08T06:09:34.719Z,61.77
2018-04-08T06:10:34.887Z,62.99
2018-04-08T06:11:35.040Z,64.70
2018-04-08T06:17:05.775Z,58.59
2018-04-08T06:18:05.944Z,59.57
2018-04-08T06:19:06.111Z,55.66
2018-04-08T06:20:06.272Z,66.65
2018-04-08T06:21:06.438Z,64.70
2018-04-08T06:22:06.602Z,54.69
2018-04-08T06:23:06.765Z,53.71
2018-04-08T06:24:06.928Z,60.06
2018-04-08T06:25:07.088Z,76.17
2018-04-08T06:28:49.796Z,67.63
2018-04-08T06:29:49.949Z,54.69
2018-04-08T06:30:50.118Z,57.13
2018-04-08T06:31:50.276Z,66.41
2018-04-08T06:32:50.447Z,72.75
2018-04-08T06:33:50.621Z,57.86
2018-04-08T06:34:50.812Z,52.00
2018-04-08T06:35:50.936Z,69.58
2018-04-08T06:36:51.099Z,81.30
2018-04-08T06:37:51.252Z,66.41
2018-04-08T06:38:51.414Z,65.43
2018-04-08T06:39:51.570Z,75.68
2018-04-08T06:40:51.733Z,66.16
2018-04-08T06:41:51.892Z,65.67
2018-04-08T06:45:34.616Z,62.74
2018-04-08T06:46:34.776Z,64.21
2018-04-08T06:47:34.933Z,61.77
2018-04-08T06:48:35.100Z,64.45
2018-04-08T06:49:35.261Z,60.55
2018-04-08T06:50:35.441Z,61.77
2018-04-08T06:51:35.588Z,69.09
2018-04-08T06:52:35.753Z,65.67
2018-04-08T06:53:35.920Z,69.58
2018-04-08T06:54:36.092Z,57.62
2018-04-08T06:55:36.261Z,67.63
2018-04-08T06:56:36.414Z,72.75
2018-04-08T06:57:36.583Z,55.91
2018-04-08T06:58:36.751Z,61.04
2018-04-08T07:02:19.482Z,70.31
2018-04-08T07:03:19.652Z,64.45
2018-04-08T07:04:19.816Z,68.85
2018-04-08T07:05:20.042Z,59.81
2018-04-08T07:06:20.151Z,56.64
2018-04-08T07:07:20.328Z,72.51
2018-04-08T07:08:20.485Z,52.00
2018-04-08T07:09:20.654Z,68.85
2018-04-08T07:10:20.832Z,59.33
2018-04-08T07:11:21.003Z,52.00
2018-04-08T07:12:21.170Z,65.19
2018-04-08T07:13:21.332Z,59.33
2018-04-08T07:14:21.501Z,69.34
2018-04-08T07:15:21.679Z,59.08
2018-04-08T07:20:02.434Z,76.42
2018-04-08T07:21:02.604Z,68.85
2018-04-08T07:22:02.775Z,83.50
2018-04-08T07:23:02.965Z,73.00
2018-04-08T07:24:03.138Z,72.27
2018-04-08T07:25:03.308Z,68.36
2018-04-08T07:26:03.478Z,63.48
2018-04-08T07:27:03.650Z,65.43
2018-04-08T07:28:03.818Z,58.84
2018-04-08T07:31:46.564Z,66.65
2018-04-08T07:32:46.781Z,57.37
2018-04-08T07:33:46.922Z,55.91
2018-04-08T07:34:47.094Z,63.23
2018-04-08T07:35:47.275Z,67.63
2018-04-08T07:36:47.474Z,76.42
2018-04-08T07:37:47.605Z,59.08
2018-04-08T07:38:47.778Z,58.11
2018-04-08T07:39:47.950Z,59.81
2018-04-08T07:40:48.099Z,65.19
2018-04-08T07:41:48.310Z,74.95
2018-04-08T07:42:48.476Z,70.31
2018-04-08T07:43:48.669Z,78.61
2018-04-08T07:44:48.814Z,74.46
2018-04-08T07:49:39.618Z,58.59
2018-04-08T07:50:39.794Z,75.68
2018-04-08T07:51:39.976Z,70.80
2018-04-08T07:52:40.157Z,70.31
2018-04-08T07:53:40.342Z,67.87
2018-04-08T07:54:40.513Z,68.60
2018-04-08T07:55:40.683Z,74.95
2018-04-08T07:56:40.864Z,68.36
2018-04-08T07:57:41.038Z,73.73
2018-04-08T07:58:41.200Z,82.03
2018-04-08T07:59:41.376Z,71.04
2018-04-08T08:00:41.550Z,66.65
2018-04-08T08:01:41.730Z,68.60
2018-04-08T08:02:41.912Z,75.93
2018-04-08T08:06:24.675Z,76.90
2018-04-08T08:07:24.853Z,65.19
2018-04-08T08:08:25.030Z,83.50
2018-04-08T08:09:25.210Z,65.67
2018-04-08T08:10:25.376Z,81.79
2018-04-08T08:11:25.549Z,69.34
2018-04-08T08:12:25.734Z,62.99
2018-04-08T08:13:25.929Z,81.54
2018-04-08T08:14:26.093Z,67.14
2018-04-08T08:15:26.263Z,72.51
2018-04-08T08:16:26.440Z,73.49
2018-04-08T08:17:26.613Z,71.78
2018-04-08T08:18:26.791Z,78.37
2018-04-08T08:19:26.972Z,61.28
2018-04-08T08:23:09.733Z,78.61
2018-04-08T08:24:09.924Z,73.49
2018-04-08T08:25:10.093Z,68.60
2018-04-08T08:26:10.262Z,65.43
2018-04-08T08:27:10.437Z,72.51
2018-04-08T08:28:10.618Z,73.49
2018-04-08T08:29:10.797Z,69.82
2018-04-08T08:30:10.998Z,70.56
2018-04-08T08:31:11.179Z,73.49
2018-04-08T08:32:11.334Z,69.82
2018-04-08T08:33:11.531Z,68.36
2018-04-08T08:34:11.698Z,72.51
2018-04-08T08:35:11.872Z,66.89
2018-04-08T08:36:12.057Z,73.00
2018-04-08T08:41:12.867Z,76.90
2018-04-08T08:42:13.041Z,77.39
2018-04-08T08:43:13.214Z,68.60
2018-04-08T08:44:13.382Z,68.12
2018-04-08T08:45:13.548Z,70.80
2018-04-08T08:46:13.721Z,71.04
2018-04-08T08:47:13.895Z,73.73
2018-04-08T08:48:14.085Z,64.21
2018-04-08T08:49:14.311Z,69.09
2018-04-08T08:52:57.045Z,73.49
2018-04-08T08:53:57.238Z,68.12
2018-04-08T08:54:57.472Z,71.29
2018-04-08T08:55:57.618Z,71.29
2018-04-08T08:56:57.765Z,73.49
2018-04-08T08:57:57.925Z,74.95
2018-04-08T08:58:58.261Z,69.09
2018-04-08T08:59:58.299Z,76.17
2018-04-08T09:00:58.521Z,77.88
2018-04-08T09:01:58.671Z,67.38
2018-04-08T09:02:58.836Z,75.68
2018-04-08T09:03:59.047Z,66.65
2018-04-08T09:04:59.201Z,62.01
2018-04-08T09:05:59.370Z,61.28
2018-04-08T09:09:42.162Z,70.56
2018-04-08T09:10:42.370Z,70.07
2018-04-08T09:11:42.538Z,78.61
2018-04-08T09:12:42.781Z,63.48
2018-04-08T09:13:42.928Z,65.43
2018-04-08T09:14:43.085Z,78.86
2018-04-08T09:15:43.254Z,65.67
2018-04-08T09:16:43.445Z,64.21
2018-04-08T09:17:43.610Z,82.03
2018-04-08T09:18:43.794Z,71.04
2018-04-08T09:19:43.936Z,76.66
2018-04-08T09:20:44.256Z,65.67
2018-04-08T09:21:44.412Z,64.21
2018-04-08T09:22:44.522Z,67.14
2018-04-08T09:26:27.298Z,63.96
2018-04-08T09:27:27.457Z,68.85
2018-04-08T09:28:27.633Z,63.48
2018-04-08T09:29:27.796Z,66.65
2018-04-08T09:30:27.968Z,64.70
2018-04-08T09:31:28.158Z,69.34
2018-04-08T09:32:28.319Z,68.60
2018-04-08T09:33:28.493Z,66.16
2018-04-08T09:34:28.697Z,67.87
2018-04-08T09:38:11.241Z,66.89
2018-04-08T09:39:11.389Z,65.92
2018-04-08T09:40:11.556Z,69.09
2018-04-08T09:41:11.741Z,68.36
2018-04-08T09:42:11.924Z,62.74
2018-04-08T09:43:12.099Z,64.94
2018-04-08T09:44:12.276Z,62.99
2018-04-08T09:45:12.448Z,67.14
2018-04-08T09:46:12.628Z,66.65
2018-04-08T09:47:12.798Z,66.16
2018-04-08T09:48:12.970Z,67.87
2018-04-08T09:49:13.148Z,66.89
2018-04-08T09:50:13.328Z,72.75
2018-04-08T09:51:13.683Z,68.85
2018-04-08T09:54:56.314Z,71.53
2018-04-08T09:55:56.459Z,66.89
2018-04-08T09:56:56.631Z,84.23
2018-04-08T09:57:56.808Z,72.02
2018-04-08T09:58:56.983Z,66.41
2018-04-08T09:59:57.157Z,70.56
2018-04-08T10:00:57.321Z,67.63
2018-04-08T10:01:57.511Z,67.38
2018-04-08T10:02:57.702Z,64.94
2018-04-08T10:06:48.003Z,65.67
2018-04-08T10:07:40.669Z,73.49
2018-04-08T10:08:40.840Z,68.12
2018-04-08T10:09:41.018Z,65.67
2018-04-08T10:10:41.188Z,69.34
2018-04-08T10:11:41.410Z,77.15
2018-04-08T10:12:41.919Z,70.31
2018-04-08T10:13:41.928Z,76.66
2018-04-08T10:14:42.038Z,64.21
2018-04-08T10:15:50.515Z,65.19
2018-04-08T10:16:43.435Z,60.79
2018-04-08T10:17:42.589Z,68.12
2018-04-08T10:18:50.103Z,64.21
2018-04-08T10:19:43.714Z,67.14
2018-04-08T10:20:44.109Z,69.58
2018-04-08T10:21:43.181Z,69.09
2018-04-08T10:22:43.510Z,72.02
2018-04-08T10:23:44.089Z,71.04
2018-04-08T10:24:43.716Z,66.41
2018-04-08T10:25:43.887Z,68.85
2018-04-08T10:26:44.064Z,68.36
2018-04-08T10:27:44.242Z,69.82
2018-04-08T10:28:44.421Z,69.58
2018-04-08T10:29:44.591Z,75.68
2018-04-08T10:30:44.758Z,66.65
2018-04-08T10:31:44.931Z,73.49
2018-04-08T10:32:45.108Z,71.78
2018-04-08T10:36:28.432Z,76.17
2018-04-08T10:37:40.594Z,68.85
2018-04-08T10:38:28.320Z,72.02
2018-04-08T10:39:29.644Z,68.36
2018-04-08T10:43:01.395Z,71.04
2018-04-08T10:44:01.573Z,76.17
2018-04-08T10:45:01.748Z,84.23
2018-04-08T10:46:02.299Z,76.17
2018-04-08T10:47:02.071Z,73.24
2018-04-08T10:48:02.255Z,72.51
2018-04-08T10:49:02.686Z,70.07
2018-04-08T10:50:06.338Z,70.56
2018-04-08T10:51:02.753Z,79.35
2018-04-08T10:54:45.416Z,78.37
2018-04-08T10:56:45.630Z,71.29
2018-04-08T10:57:45.766Z,95.46
2018-04-08T10:58:47.590Z,80.57
2018-04-08T10:59:46.120Z,69.58
2018-04-08T11:00:46.297Z,74.95
2018-04-08T11:01:48.067Z,70.31
2018-04-08T11:02:46.887Z,70.07
2018-04-08T11:03:46.778Z,68.85
2018-04-08T11:04:47.430Z,67.38
2018-04-08T11:05:47.733Z,74.95
2018-04-08T11:09:19.780Z,79.83
2018-04-08T11:10:20.178Z,68.85
2018-04-08T11:11:20.606Z,81.05
2018-04-08T11:12:20.273Z,69.09
2018-04-08T11:13:28.958Z,72.02
2018-04-08T11:14:20.620Z,65.92
2018-04-08T11:15:22.769Z,69.09
2018-04-08T11:16:21.306Z,71.78
2018-04-08T11:17:21.942Z,77.88
2018-04-08T11:18:21.237Z,70.80
2018-04-08T11:19:21.570Z,70.31
2018-04-08T11:20:22.695Z,69.82
2018-04-08T11:21:22.246Z,67.63
2018-04-08T11:22:22.880Z,70.07
2018-04-08T11:23:28.437Z,89.84
2018-04-08T11:26:54.606Z,70.80
2018-04-08T11:27:56.242Z,73.49
2018-04-08T11:29:03.302Z,73.00
2018-04-08T11:29:55.127Z,70.80
2018-04-08T11:30:55.367Z,76.66
2018-04-08T11:31:56.171Z,83.50
2018-04-08T11:32:55.551Z,76.90
2018-04-08T11:33:55.691Z,72.02
2018-04-08T11:34:57.454Z,73.00
2018-04-08T11:35:56.086Z,71.04
2018-04-08T11:36:56.202Z,75.44
2018-04-08T11:37:56.260Z,70.31
2018-04-08T11:38:56.647Z,79.59
2018-04-08T11:39:56.597Z,71.29
2018-04-08T11:40:56.768Z,70.80
2018-04-08T11:41:56.943Z,81.30
2018-04-08T11:42:57.132Z,83.25
2018-04-08T11:47:56.364Z,67.87
2018-04-08T11:48:58.991Z,70.07
2018-04-08T11:49:56.566Z,70.31
2018-04-08T11:50:56.754Z,72.51
2018-04-08T11:51:56.926Z,73.49
2018-04-08T11:52:57.099Z,70.80
2018-04-08T11:53:57.278Z,69.09
2018-04-08T11:54:57.476Z,82.52
2018-04-08T11:56:04.970Z,91.55
2018-04-08T11:56:57.808Z,73.49
2018-04-08T11:58:05.445Z,74.71
2018-04-08T11:58:58.094Z,72.75
2018-04-08T11:59:58.287Z,78.86
2018-04-08T12:00:58.435Z,75.68
2018-04-08T12:01:58.651Z,76.90
2018-04-08T12:02:58.773Z,72.75
2018-04-08T12:03:58.941Z,76.90
2018-04-08T12:04:59.119Z,80.32
2018-04-08T12:05:59.279Z,76.90
2018-04-08T12:06:59.719Z,69.58
2018-04-08T12:07:59.827Z,75.20
2018-04-08T12:11:42.401Z,77.39
2018-04-08T12:12:42.752Z,77.15
2018-04-08T12:13:42.720Z,71.29
2018-04-08T12:14:42.900Z,74.71
2018-04-08T12:15:43.074Z,78.86
2018-04-08T12:16:43.266Z,76.17
2018-04-08T12:17:43.502Z,71.53
2018-04-08T12:18:43.572Z,78.13
2018-04-08T12:19:43.740Z,81.05
2018-04-08T12:23:26.518Z,71.53
2018-04-08T12:24:26.685Z,73.24
2018-04-08T12:25:26.853Z,72.02
2018-04-08T12:26:27.039Z,71.53
2018-04-08T12:27:27.252Z,72.02
2018-04-08T12:28:27.385Z,78.13
2018-04-08T12:29:27.546Z,73.00
2018-04-08T12:30:27.719Z,74.95
2018-04-08T12:31:27.922Z,74.46
2018-04-08T12:32:28.064Z,72.75
2018-04-08T12:33:28.240Z,75.20
2018-04-08T12:34:28.423Z,76.90
2018-04-08T12:35:28.597Z,79.83
2018-04-08T12:36:28.756Z,75.93
2018-04-08T12:40:11.461Z,76.66
2018-04-08T12:41:12.106Z,74.71
2018-04-08T12:42:11.627Z,76.17
2018-04-08T12:43:11.847Z,78.13
2018-04-08T12:44:11.982Z,78.13
2018-04-08T12:45:12.298Z,73.49
2018-04-08T12:46:19.916Z,76.42
2018-04-08T12:47:12.472Z,76.17
2018-04-08T12:48:12.623Z,78.61
2018-04-08T12:49:12.811Z,77.39
2018-04-08T12:50:12.983Z,78.61
2018-04-08T12:51:13.153Z,78.61
2018-04-08T12:52:13.323Z,74.71
2018-04-08T12:53:13.524Z,73.73
2018-04-08T12:54:13.661Z,75.20
2018-04-08T12:55:13.838Z,79.10
2018-04-08T12:56:15.005Z,91.31
2018-04-08T12:57:14.177Z,73.24
2018-04-08T12:58:14.348Z,76.66
2018-04-08T12:59:14.525Z,81.05
2018-04-08T13:00:14.697Z,78.13
2018-04-08T13:03:57.446Z,76.66
2018-04-08T13:04:57.624Z,94.73
2018-04-08T13:05:57.794Z,98.63
2018-04-08T13:06:57.971Z,73.49
2018-04-08T13:07:58.141Z,88.13
2018-04-08T13:08:58.317Z,72.02
2018-04-08T13:09:58.477Z,70.56
2018-04-08T13:10:58.913Z,72.27
2018-04-08T13:11:59.253Z,79.59
2018-04-08T13:15:31.579Z,74.71
2018-04-08T13:16:31.751Z,85.45
2018-04-08T13:17:31.930Z,69.82
2018-04-08T13:18:32.137Z,69.82
2018-04-08T13:19:32.312Z,74.71
2018-04-08T13:20:32.477Z,87.65
2018-04-08T13:21:32.636Z,83.50
2018-04-08T13:22:32.827Z,75.93
2018-04-08T13:23:32.971Z,75.44
2018-04-08T13:27:15.472Z,73.97
2018-04-08T13:28:15.636Z,81.54
2018-04-08T13:29:15.806Z,85.69
2018-04-08T13:30:15.976Z,74.95
2018-04-08T13:31:16.161Z,75.68
2018-04-08T13:32:16.327Z,75.93
2018-04-08T13:33:16.516Z,105.22
2018-04-08T13:34:16.670Z,99.61
2018-04-08T13:35:16.843Z,80.32
2018-04-08T13:38:50.158Z,79.59
2018-04-08T13:39:57.542Z,76.66
2018-04-08T13:40:49.738Z,72.51
2018-04-08T13:41:49.929Z,75.44
2018-04-08T13:42:57.553Z,73.00
2018-04-08T13:43:50.217Z,77.39
2018-04-08T13:44:50.383Z,75.93
2018-04-08T13:45:58.528Z,83.50
2018-04-08T13:46:50.688Z,73.49
2018-04-08T13:47:52.773Z,81.05
2018-04-08T13:48:51.088Z,85.45
2018-04-08T13:49:51.298Z,72.27
2018-04-08T13:50:53.238Z,72.51
2018-04-08T13:51:51.636Z,85.69
2018-04-08T13:52:51.835Z,74.71
2018-04-08T13:53:51.982Z,75.68
2018-04-08T13:54:52.142Z,85.94
2018-04-08T13:55:52.316Z,75.20
2018-04-08T13:59:25.085Z,75.93
2018-04-08T14:00:25.235Z,75.20
2018-04-08T14:01:25.445Z,77.15
2018-04-08T14:02:25.572Z,81.54
2018-04-08T14:03:25.765Z,77.39
2018-04-08T14:04:25.937Z,78.13
2018-04-08T14:05:26.112Z,73.24
2018-04-08T14:06:26.280Z,73.49
2018-04-08T14:07:29.130Z,75.68
2018-04-08T14:08:28.643Z,83.01
2018-04-08T14:09:26.813Z,75.44
2018-04-08T14:10:26.976Z,79.35
2018-04-08T14:11:27.149Z,87.40
2018-04-08T14:12:27.326Z,71.53
2018-04-08T14:16:22.182Z,72.27
2018-04-08T14:17:22.383Z,89.60
2018-04-08T14:18:22.883Z,83.98
2018-04-08T14:19:22.729Z,72.75
2018-04-08T14:20:22.842Z,78.86
2018-04-08T14:21:23.011Z,92.29
2018-04-08T14:22:23.786Z,70.80
2018-04-08T14:23:23.327Z,69.09
2018-04-08T14:24:24.358Z,81.54
2018-04-08T14:25:23.741Z,76.42
2018-04-08T14:26:23.883Z,83.01
2018-04-08T14:27:24.080Z,78.61
2018-04-08T14:28:24.324Z,73.49
2018-04-08T14:29:25.231Z,89.36
2018-04-08T14:32:57.233Z,75.44
2018-04-08T14:33:57.405Z,73.24
2018-04-08T14:34:57.579Z,78.13
2018-04-08T14:35:57.750Z,73.97
2018-04-08T14:36:57.925Z,88.62
2018-04-08T14:37:58.093Z,76.90
2018-04-08T14:38:58.263Z,79.10
2018-04-08T14:39:58.435Z,72.02
2018-04-08T14:40:58.670Z,86.43
2018-04-08T14:41:58.778Z,86.18
2018-04-08T14:42:58.958Z,79.10
2018-04-08T14:44:07.070Z,71.53
2018-04-08T14:44:59.234Z,76.17
2018-04-08T14:45:59.420Z,85.94
2018-04-08T14:46:59.590Z,76.66
2018-04-08T14:48:00.334Z,69.82
2018-04-08T14:48:59.895Z,72.27
2018-04-08T14:50:00.087Z,74.95
2018-04-08T14:51:08.210Z,74.71
2018-04-08T14:52:00.470Z,78.86
2018-04-08T14:53:00.556Z,75.44
2018-04-08T14:54:00.772Z,67.87
2018-04-08T14:55:00.895Z,69.34
2018-04-08T14:56:01.095Z,68.60
2018-04-08T14:57:01.288Z,70.56
2018-04-08T14:58:01.459Z,74.46
2018-04-08T14:59:01.664Z,87.65
2018-04-08T15:00:01.782Z,68.36
2018-04-08T15:01:01.986Z,74.71
2018-04-08T15:02:02.158Z,72.27
2018-04-08T15:03:02.328Z,76.66
2018-04-08T15:04:02.503Z,73.24
2018-04-08T15:05:02.689Z,75.44
2018-04-08T15:08:45.998Z,84.72
2018-04-08T15:09:45.508Z,71.29
2018-04-08T15:10:45.563Z,85.45
2018-04-08T15:11:45.826Z,73.49
2018-04-08T15:12:46.030Z,78.61
2018-04-08T15:13:46.062Z,72.75
2018-04-08T15:14:46.243Z,74.95
2018-04-08T15:15:46.417Z,76.66
2018-04-08T15:16:46.607Z,74.46
2018-04-08T15:17:46.850Z,72.75
2018-04-08T15:18:46.919Z,75.93
2018-04-08T15:19:47.082Z,80.08
2018-04-08T15:20:55.233Z,72.75
2018-04-08T15:21:50.490Z,76.42
2018-04-08T15:25:19.651Z,74.71
2018-04-08T15:26:19.996Z,79.35
2018-04-08T15:27:20.396Z,89.36
2018-04-08T15:28:20.463Z,73.49
2018-04-08T15:29:21.291Z,85.69
2018-04-08T15:30:23.347Z,83.01
2018-04-08T15:31:20.848Z,74.95
2018-04-08T15:32:20.910Z,80.08
2018-04-08T15:33:21.092Z,83.25
2018-04-08T15:34:21.263Z,81.54
2018-04-08T15:35:21.437Z,76.66
2018-04-08T15:36:21.608Z,76.17
2018-04-08T15:37:21.779Z,74.71
2018-04-08T15:38:21.961Z,74.22
2018-04-08T15:41:54.421Z,73.24
2018-04-08T15:43:02.048Z,74.71
2018-04-08T15:43:54.711Z,76.90